Time;durP1;ratioP1;P1;durP2;ratioP2;P2;SDS_P1;SDS_P2;PMS_P1;PMS_P2;Temp;Humidity;BMP_temperature;BMP_pressure;BME280_temperature;BME280_humidity;BME280_pressure;Samples;Min_cycle;Max_cycle;Signal;HPM_P1;HPM_P2
2023/05/05 00:01:44;;;;;;;6.50;3.53;;;;;;;9.74;40.98;100150.47;5092531;28;20032;-59
2023/05/05 00:04:10;;;;;;;5.88;3.70;;;;;;;9.63;41.20;100138.72;5096255;28;20427;-61
2023/05/05 00:06:36;;;;;;;6.95;3.58;;;;;;;9.62;41.87;100145.03;5078444;28;20036;-59
2023/05/05 00:09:01;;;;;;;10.60;3.30;;;;;;;9.56;41.86;100141.97;5096182;28;20133;-60
2023/05/05 00:11:27;;;;;;;6.47;3.50;;;;;;;9.53;42.48;100150.22;5096042;28;20028;-61
2023/05/05 00:13:52;;;;;;;5.47;3.58;;;;;;;9.45;42.27;100145.41;5096299;28;20039;-62
2023/05/05 00:16:18;;;;;;;6.03;3.35;;;;;;;9.43;42.55;100150.00;5096315;28;20032;-62
2023/05/05 00:18:44;;;;;;;10.90;3.45;;;;;;;9.37;42.61;100153.09;5096130;28;20047;-60
2023/05/05 00:21:09;;;;;;;12.57;3.95;;;;;;;9.27;42.14;100136.84;5095957;28;20111;-60
2023/05/05 00:23:35;;;;;;;7.22;3.90;;;;;;;9.19;42.33;100134.72;5095769;28;20324;-61
2023/05/05 00:26:01;;;;;;;6.30;3.70;;;;;;;9.19;43.01;100146.25;5095882;28;20028;-61
2023/05/05 00:28:26;;;;;;;7.05;3.50;;;;;;;9.14;42.90;100144.84;5095920;28;20419;-60
2023/05/05 00:30:52;;;;;;;7.70;3.72;;;;;;;9.08;43.09;100155.97;5095867;28;20355;-58
2023/05/05 00:33:17;;;;;;;10.18;4.30;;;;;;;9.04;43.21;100152.66;5095683;28;20420;-61
2023/05/05 00:35:43;;;;;;;11.13;3.83;;;;;;;8.99;43.78;100154.78;5095871;28;20028;-59
2023/05/05 00:38:09;;;;;;;6.22;3.60;;;;;;;8.75;44.40;100120.81;5095790;28;20028;-61
2023/05/05 00:40:36;;;;;;;7.65;3.78;;;;;;;8.92;44.13;100159.69;5095633;28;20028;-63
2023/05/05 00:43:02;;;;;;;10.88;3.65;;;;;;;8.86;43.93;100155.66;5095552;28;20048;-62
2023/05/05 00:45:27;;;;;;;8.50;3.47;;;;;;;8.64;44.26;100124.19;5077820;28;20034;-62
2023/05/05 00:47:56;;;;;;;10.73;3.70;;;;;;;8.63;44.36;100122.50;5095666;28;20028;-61
2023/05/05 00:50:26;;;;;;;10.85;3.25;;;;;;;8.76;44.20;100155.41;5095225;28;20085;-59
2023/05/05 00:52:55;;;;;;;9.30;4.20;;;;;;;8.72;44.91;100150.38;5095775;28;20024;-60
2023/05/05 00:55:21;;;;;;;8.35;3.78;;;;;;;8.66;44.98;100150.81;5095371;28;20028;-62
2023/05/05 00:57:48;;;;;;;13.90;4.18;;;;;;;8.62;45.40;100152.81;5095113;28;20043;-60
2023/05/05 01:00:15;;;;;;;8.70;3.70;;;;;;;8.58;45.57;100156.66;5095135;28;20028;-59
2023/05/05 01:02:41;;;;;;;10.57;3.65;;;;;;;8.54;45.83;100147.97;5095373;28;20032;-61
2023/05/05 01:05:08;;;;;;;9.73;3.22;;;;;;;8.53;45.82;100146.28;5095144;28;20042;-60
2023/05/05 01:07:39;;;;;;;12.50;3.80;;;;;;;8.50;45.62;100153.66;5094865;28;20044;-61
2023/05/05 01:10:14;;;;;;;10.20;3.67;;;;;;;8.51;45.79;100160.69;5094970;28;20474;-59
2023/05/05 01:12:55;;;;;;;10.00;3.75;;;;;;;8.52;45.59;100157.91;5095496;28;20035;-59
2023/05/05 01:15:41;;;;;;;7.68;3.72;;;;;;;8.53;45.31;100161.44;5076244;28;20416;-60
2023/05/05 01:18:18;;;;;;;;;;;;;;;8.76;43.31;100158.09;5095282;28;20160;-60
2023/05/05 01:20:55;;;;;;;8.52;4.43;;;;;;;8.57;44.44;100157.63;5076867;28;19976;-60
2023/05/05 01:24:03;;;;;;;8.00;4.22;;;;;;;8.53;44.51;100146.28;5077065;28;20092;-59
2023/05/05 01:26:53;;;;;;;12.05;4.43;;;;;;;8.47;44.74;100146.66;5060654;28;20040;-60
2023/05/05 01:29:47;;;;;;;9.40;4.65;;;;;;;8.41;45.66;100144.41;5094616;28;20023;-61
2023/05/05 01:32:15;;;;;;;7.85;4.10;;;;;;;8.25;45.74;100126.75;5094709;28;20104;-61
2023/05/05 01:34:47;;;;;;;5.78;3.65;;;;;;;8.25;45.82;100133.91;5094933;28;20036;-60
2023/05/05 01:37:23;;;;;;;9.77;3.65;;;;;;;8.28;45.77;100131.03;5094292;28;20035;-60
2023/05/05 01:39:51;;;;;;;7.55;3.40;;;;;;;8.21;45.61;100132.41;5094561;28;20028;-60
2023/05/05 01:42:20;;;;;;;7.00;3.15;;;;;;;8.17;45.98;100126.41;5094654;28;20020;-60
2023/05/05 01:44:47;;;;;;;5.25;3.45;;;;;;;8.17;46.37;100148.59;5094157;28;20119;-60
2023/05/05 01:47:15;;;;;;;6.45;3.45;;;;;;;8.16;46.18;100141.53;5094271;28;20031;-62
2023/05/05 01:49:46;;;;;;;5.15;2.70;;;;;;;8.11;45.87;100134.81;5094201;28;20027;-61
2023/05/05 01:52:13;;;;;;;4.05;2.80;;;;;;;8.17;45.91;100142.41;5094104;28;20397;-61
2023/05/05 01:54:41;;;;;;;4.90;2.42;;;;;;;8.13;46.00;100133.75;5094138;28;20028;-61
2023/05/05 01:57:08;;;;;;;7.22;3.03;;;;;;;8.16;46.28;100144.19;5076019;28;20024;-57
2023/05/05 01:59:36;;;;;;;7.55;2.83;;;;;;;8.16;46.77;100141.53;5076334;28;20031;-60
2023/05/05 02:02:03;;;;;;;10.07;3.00;;;;;;;8.15;46.59;100153.16;5094064;28;20419;-61
2023/05/05 02:04:31;;;;;;;9.20;3.20;;;;;;;8.17;46.55;100148.59;5094008;28;20042;-58
2023/05/05 02:07:01;;;;;;;7.05;3.38;;;;;;;8.14;46.72;100143.44;5093982;28;20052;-61
2023/05/05 02:09:27;;;;;;;8.45;3.53;;;;;;;8.14;46.54;100135.44;5094289;28;20054;-60
2023/05/05 02:11:56;;;;;;;7.10;3.05;;;;;;;8.17;46.57;100140.56;5076198;28;20032;-58
2023/05/05 02:14:22;;;;;;;6.38;3.13;;;;;;;8.18;46.62;100142.28;5093996;28;20031;-64
2023/05/05 02:16:50;;;;;;;6.80;2.60;;;;;;;8.19;46.40;100138.66;5094010;28;20040;-61
2023/05/05 02:19:17;;;;;;;6.45;2.78;;;;;;;8.25;46.14;100141.91;5093793;28;20028;-61
2023/05/05 02:21:43;;;;;;;6.97;2.58;;;;;;;8.29;45.82;100138.91;5075875;28;20503;-62
2023/05/05 02:24:09;;;;;;;4.57;2.30;;;;;;;8.36;45.50;100136.72;5075961;28;20032;-62
2023/05/05 02:26:38;;;;;;;4.13;2.30;;;;;;;8.48;45.52;100145.69;5093244;28;20035;-60
2023/05/05 02:29:13;;;;;;;7.63;2.50;;;;;;;8.55;45.49;100140.84;5093400;28;20072;-61
2023/05/05 02:31:46;;;;;;;3.85;2.40;;;;;;;8.65;45.60;100147.25;5093727;28;20037;-60
2023/05/05 02:34:15;;;;;;;4.60;2.47;;;;;;;8.67;45.26;100140.00;5093640;28;20343;-61
2023/05/05 02:36:43;;;;;;;5.88;2.50;;;;;;;8.75;45.47;100140.38;5093320;28;20443;-59
2023/05/05 02:39:24;;;;;;;4.35;2.47;;;;;;;8.96;44.96;100139.84;5093470;28;20065;-61
2023/05/05 02:41:54;;;;;;;4.43;2.33;;;;;;;8.86;45.00;100112.06;5093456;28;20359;-60
2023/05/05 02:44:23;;;;;;;10.27;2.90;;;;;;;9.10;44.52;100140.69;5093178;28;20123;-59
2023/05/05 02:46:49;;;;;;;4.68;2.67;;;;;;;9.15;44.68;100141.22;5093289;28;20032;-59
2023/05/05 02:49:15;;;;;;;6.47;2.70;;;;;;;9.16;44.26;100135.78;5093371;28;20028;-59
2023/05/05 02:51:40;;;;;;;7.38;2.65;;;;;;;9.23;44.34;100146.03;5093302;28;20038;-59
2023/05/05 02:54:06;;;;;;;3.58;2.60;;;;;;;9.25;43.93;100139.63;5093114;28;20119;-61
2023/05/05 02:56:46;;;;;;;6.03;2.75;;;;;;;9.17;44.21;100109.94;5093328;28;20414;-61
2023/05/05 02:59:19;;;;;;;5.65;3.17;;;;;;;9.42;44.15;100146.47;5075544;28;20059;-61
2023/05/05 03:01:56;;;;;;;3.45;2.80;;;;;;;9.40;44.00;100148.38;5093240;28;20466;-60
2023/05/05 03:04:37;;;;;;;5.28;3.13;;;;;;;9.41;44.09;100144.75;5092861;28;20062;-59
2023/05/05 03:07:09;;;;;;;6.45;3.15;;;;;;;9.42;43.94;100153.63;5093384;28;20052;-59
2023/05/05 03:09:39;;;;;;;6.22;3.15;;;;;;;9.42;43.80;100156.31;5093289;28;20054;-61
2023/05/05 03:12:08;;;;;;;6.60;3.10;;;;;;;9.27;43.94;100123.47;5093128;28;20471;-60
2023/05/05 03:14:37;;;;;;;5.57;3.17;;;;;;;9.41;44.01;100155.44;5093039;28;20099;-61
2023/05/05 03:17:05;;;;;;;6.63;3.05;;;;;;;9.38;44.13;100168.16;5093798;28;20082;-61
2023/05/05 03:19:31;;;;;;;4.88;2.92;;;;;;;9.21;44.48;100154.19;5093334;28;20032;-59
2023/05/05 03:21:57;;;;;;;4.47;3.20;;;;;;;9.14;44.74;100156.41;5092855;28;20120;-60
2023/05/05 03:24:23;;;;;;;6.28;3.53;;;;;;;9.13;44.85;100156.50;5092591;28;20032;-59
2023/05/05 03:26:49;;;;;;;7.40;3.55;;;;;;;9.13;45.11;100161.84;5092970;28;20032;-60
2023/05/05 03:29:15;;;;;;;6.25;3.28;;;;;;;9.24;45.29;100169.13;5093095;28;20048;-59
2023/05/05 03:31:40;;;;;;;5.78;2.97;;;;;;;9.27;44.75;100167.09;5093313;28;20031;-61
2023/05/05 03:34:06;;;;;;;8.23;3.30;;;;;;;9.43;44.17;100177.56;5092898;28;20036;-61
2023/05/05 03:36:34;;;;;;;5.00;2.70;;;;;;;9.46;44.71;100168.50;5093152;28;20032;-59
2023/05/05 03:38:59;;;;;;;10.05;2.70;;;;;;;9.45;44.13;100143.56;5096772;28;20493;-60
2023/05/05 03:41:26;;;;;;;4.47;3.00;;;;;;;10.12;43.10;100170.06;5096514;28;20020;-61
2023/05/05 03:43:51;;;;;;;4.40;2.75;;;;;;;10.99;41.52;100159.13;5096585;28;20047;-58
2023/05/05 03:46:17;;;;;;;6.85;2.30;;;;;;;12.16;38.90;100168.75;5096422;28;20031;-57
2023/05/05 03:48:42;;;;;;;2.58;2.03;;;;;;;13.11;36.79;100169.81;5096367;28;20116;-59
2023/05/05 03:51:08;;;;;;;4.90;2.20;;;;;;;13.48;35.79;100176.56;5096661;28;20409;-61
2023/05/05 03:53:33;;;;;;;3.10;2.33;;;;;;;13.41;35.67;100175.38;5096856;28;20058;-62
2023/05/05 03:55:59;;;;;;;5.72;2.00;;;;;;;13.45;35.49;100179.53;5096413;28;20110;-60
2023/05/05 03:58:24;;;;;;;8.60;1.83;;;;;;;13.32;35.48;100174.31;5096513;28;20119;-60
2023/05/05 04:00:50;;;;;;;4.18;2.20;;;;;;;13.23;35.83;100184.03;5096149;28;20031;-60
2023/05/05 04:03:16;;;;;;;2.85;1.90;;;;;;;13.34;35.57;100181.28;5096349;28;20032;-60
2023/05/05 04:05:42;;;;;;;8.82;2.15;;;;;;;13.56;34.84;100184.81;5096205;28;20024;-61
2023/05/05 04:08:07;;;;;;;4.30;1.90;;;;;;;13.35;35.26;100188.38;5096468;28;20123;-61
2023/05/05 04:10:33;;;;;;;4.93;1.60;;;;;;;12.70;36.35;100182.28;5096514;28;20119;-58
2023/05/05 04:12:58;;;;;;;2.45;1.92;;;;;;;13.02;36.33;100192.97;5096013;28;20051;-58
2023/05/05 04:15:24;;;;;;;3.28;1.77;;;;;;;14.26;33.98;100188.59;5095922;28;20059;-61
2023/05/05 04:17:50;;;;;;;2.90;1.67;;;;;;;15.63;31.63;100190.34;5096117;28;20032;-60
2023/05/05 04:20:15;;;;;;;5.00;1.67;;;;;;;17.08;29.28;100185.97;5096273;28;20111;-60
2023/05/05 04:22:41;;;;;;;4.88;1.70;;;;;;;18.25;27.59;100192.88;5095806;28;20284;-60
2023/05/05 04:25:06;;;;;;;3.58;1.60;;;;;;;19.11;26.31;100183.66;5095871;28;20435;-61
2023/05/05 04:27:32;;;;;;;3.05;1.75;;;;;;;19.83;25.23;100190.09;5095993;28;20332;-60
2023/05/05 04:29:57;;;;;;;2.13;1.60;;;;;;;20.60;24.25;100183.94;5095848;28;20020;-60
2023/05/05 04:32:23;;;;;;;4.95;1.90;;;;;;;21.25;23.41;100188.19;5095685;28;20055;-60
2023/05/05 04:34:48;;;;;;;4.50;1.70;;;;;;;21.87;22.57;100189.75;5095887;28;20128;-61
2023/05/05 04:37:13;;;;;;;2.67;1.80;;;;;;;22.71;21.59;100193.06;5095742;28;20039;-60
2023/05/05 04:39:40;;;;;;;3.03;1.50;;;;;;;23.17;21.00;100194.50;5095735;28;20139;-61
2023/05/05 04:42:05;;;;;;;6.07;2.00;;;;;;;23.98;20.09;100207.88;5095655;28;20093;-60
2023/05/05 04:44:32;;;;;;;5.00;2.05;;;;;;;24.10;19.77;100214.44;5095737;28;20039;-60
2023/05/05 04:46:59;;;;;;;4.50;1.77;;;;;;;24.27;19.52;100211.38;5095338;28;20024;-61
2023/05/05 04:49:24;;;;;;;4.03;1.77;;;;;;;24.54;19.17;100217.78;5095158;28;20369;-61
2023/05/05 04:51:50;;;;;;;6.50;1.80;;;;;;;25.49;17.93;100207.75;5095423;28;20111;-60
2023/05/05 04:54:15;;;;;;;9.65;2.47;;;;;;;26.46;17.17;100223.50;5095558;28;20028;-61
2023/05/05 04:56:40;;;;;;;4.03;2.20;;;;;;;27.19;16.68;100220.47;5095751;28;20035;-62
2023/05/05 04:59:06;;;;;;;2.63;1.73;;;;;;;27.27;16.11;100214.72;5095629;28;20036;-61
2023/05/05 05:01:31;;;;;;;5.18;1.95;;;;;;;27.80;15.77;100223.53;5094965;28;20162;-60
2023/05/05 05:03:57;;;;;;;2.97;1.42;;;;;;;28.03;15.21;100192.56;5095098;28;20458;-60
2023/05/05 05:06:23;;;;;;;5.68;1.52;;;;;;;28.23;15.08;100224.53;5077219;28;20048;-60
2023/05/05 05:08:49;;;;;;;6.32;1.65;;;;;;;28.45;14.75;100216.59;5094791;28;20506;-61
2023/05/05 05:11:14;;;;;;;5.40;1.40;;;;;;;28.30;15.07;100218.94;5094749;28;20557;-61
2023/05/05 05:13:40;;;;;;;5.10;2.30;;;;;;;28.99;14.75;100226.00;5095185;28;20402;-61
2023/05/05 05:16:06;;;;;;;3.45;1.30;;;;;;;29.77;13.94;100220.44;5094893;28;20047;-61
2023/05/05 05:18:31;;;;;;;4.28;1.50;;;;;;;29.77;13.78;100209.41;5094564;28;20120;-60
2023/05/05 05:20:57;;;;;;;2.67;1.27;;;;;;;28.83;14.28;100200.84;5094604;28;20407;-61
2023/05/05 05:23:22;;;;;;;4.47;1.70;;;;;;;26.12;16.33;100203.59;5094982;28;20107;-62
2023/05/05 05:25:48;;;;;;;8.13;1.40;;;;;;;23.74;18.66;100207.31;5094990;28;20028;-60
2023/05/05 05:28:13;;;;;;;6.22;1.65;;;;;;;21.89;20.96;100217.66;5076527;28;20044;-61
2023/05/05 05:30:39;;;;;;;5.38;2.20;;;;;;;20.75;22.10;100222.09;5094507;28;20040;-61
2023/05/05 05:33:04;;;;;;;6.18;2.08;;;;;;;22.49;21.06;100228.50;5094730;28;20032;-61
2023/05/05 05:35:30;;;;;;;3.38;1.75;;;;;;;24.71;18.46;100217.38;5076596;28;20062;-61
2023/05/05 05:37:55;;;;;;;5.43;2.35;;;;;;;27.25;15.97;100219.59;5093977;28;20020;-61
2023/05/05 05:40:21;;;;;;;5.78;2.03;;;;;;;26.87;15.92;100210.38;5094151;28;20040;-61
2023/05/05 05:42:46;;;;;;;4.93;1.45;;;;;;;26.78;16.14;100228.16;5094117;28;20081;-62
2023/05/05 05:45:11;;;;;;;6.63;1.70;;;;;;;26.71;16.15;100230.94;5094200;28;20362;-62
2023/05/05 05:47:37;;;;;;;5.18;1.75;;;;;;;25.91;16.65;100227.50;5076265;28;20044;-60
2023/05/05 05:50:03;;;;;;;4.35;1.50;;;;;;;25.53;17.15;100225.47;5093616;28;20047;-61
2023/05/05 05:52:29;;;;;;;6.30;1.70;;;;;;;26.26;16.74;100228.22;5094173;28;20028;-62
2023/05/05 05:54:55;;;;;;;3.10;1.35;;;;;;;25.61;16.71;100213.44;5094043;28;20035;-60
2023/05/05 05:57:22;;;;;;;4.82;1.40;;;;;;;24.08;18.33;100232.97;5094014;28;20457;-62
2023/05/05 05:59:48;;;;;;;4.25;1.50;;;;;;;22.04;20.36;100200.47;5093532;28;20039;-61
2023/05/05 06:02:13;;;;;;;4.57;1.63;;;;;;;20.65;22.29;100226.91;5094104;28;20028;-61
2023/05/05 06:04:38;;;;;;;4.35;1.73;;;;;;;19.15;23.99;100228.44;5093813;28;20043;-62
2023/05/05 06:07:04;;;;;;;10.15;1.88;;;;;;;17.96;25.88;100237.44;5093868;28;20490;-62
2023/05/05 06:09:29;;;;;;;4.47;1.52;;;;;;;17.06;27.07;100225.88;5094049;28;20447;-61
2023/05/05 06:11:54;;;;;;;8.18;1.98;;;;;;;16.42;28.08;100239.44;5093670;28;20074;-60
2023/05/05 06:14:20;;;;;;;6.00;1.83;;;;;;;15.85;28.50;100237.69;5094202;28;20168;-61
2023/05/05 06:16:45;;;;;;;4.60;1.60;;;;;;;15.53;29.44;100233.53;5093513;28;20028;-61
2023/05/05 06:19:11;;;;;;;5.13;1.70;;;;;;;15.25;29.96;100225.38;5093685;28;20028;-60
2023/05/05 06:21:36;;;;;;;6.03;1.90;;;;;;;14.63;30.71;100237.28;5093748;28;20039;-61
2023/05/05 06:24:01;;;;;;;5.95;1.75;;;;;;;14.03;31.47;100203.13;5093302;28;20036;-61
2023/05/05 06:26:27;;;;;;;5.20;1.50;;;;;;;13.79;32.08;100211.56;5093155;28;20036;-63
2023/05/05 06:28:52;;;;;;;3.35;1.50;;;;;;;13.56;33.07;100238.63;5093348;28;20028;-61
2023/05/05 06:31:18;;;;;;;7.20;2.05;;;;;;;13.21;33.58;100239.78;5093873;28;20107;-63
2023/05/05 06:33:43;;;;;;;3.25;1.88;;;;;;;12.97;34.20;100232.81;5093851;28;20319;-62
2023/05/05 06:36:09;;;;;;;6.38;2.20;;;;;;;12.83;34.26;100241.19;5093134;28;20024;-61
2023/05/05 06:38:34;;;;;;;5.28;2.25;;;;;;;12.72;34.63;100239.41;5075567;28;20113;-62
2023/05/05 06:40:59;;;;;;;5.93;2.25;;;;;;;12.89;34.70;100246.06;5093575;28;20046;-62
2023/05/05 06:43:25;;;;;;;3.60;2.17;;;;;;;13.13;34.22;100253.03;5093089;28;20051;-60
2023/05/05 06:45:51;;;;;;;4.82;2.00;;;;;;;13.99;32.80;100246.63;5075111;28;20043;-61
2023/05/05 06:48:17;;;;;;;4.97;1.75;;;;;;;14.95;30.86;100240.72;5093618;28;20039;-61
2023/05/05 06:50:42;;;;;;;6.88;2.05;;;;;;;15.99;29.44;100239.06;5093481;28;20473;-61
2023/05/05 06:53:08;;;;;;;3.25;1.48;;;;;;;19.47;24.90;100235.72;5092585;28;20055;-61
2023/05/05 06:55:33;;;;;;;6.10;2.15;;;;;;;23.59;19.77;100235.59;5092715;28;20070;-62
2023/05/05 06:57:58;;;;;;;5.03;1.95;;;;;;;24.14;19.13;100245.84;5092897;28;20028;-60
2023/05/05 07:00:24;;;;;;;8.88;2.03;;;;;;;23.56;19.55;100249.66;5075209;28;20036;-62
2023/05/05 07:02:49;;;;;;;3.83;1.95;;;;;;;23.43;19.34;100244.94;5092755;28;20059;-61
2023/05/05 07:05:15;;;;;;;3.80;1.75;;;;;;;26.78;16.60;100255.63;5092753;28;20036;-61
2023/05/05 07:07:54;;;;;;;6.20;1.73;;;;;;;27.58;16.14;100259.72;5092709;28;20056;-62
2023/05/05 07:10:21;;;;;;;9.25;1.50;;;;;;;25.21;17.38;100228.00;5093112;28;20447;-61
2023/05/05 07:12:47;;;;;;;2.72;1.48;;;;;;;22.83;19.78;100260.78;5092166;28;20024;-61
2023/05/05 07:15:12;;;;;;;3.42;1.45;;;;;;;21.12;21.61;100246.00;5092633;28;20046;-62
2023/05/05 07:17:37;;;;;;;3.05;1.10;;;;;;;19.58;23.32;100253.50;5074983;28;20035;-61
2023/05/05 07:20:03;;;;;;;3.28;1.40;;;;;;;19.20;23.98;100272.19;5092877;28;20028;-62
2023/05/05 07:22:29;;;;;;;6.78;1.90;;;;;;;18.78;24.60;100291.09;5093011;28;20028;-62
2023/05/05 07:24:54;;;;;;;4.75;2.92;;;;;;;18.02;25.74;100284.72;5092281;28;20046;-61
2023/05/05 07:27:21;;;;;;;10.20;2.25;;;;;;;16.94;26.89;100265.81;5092599;28;20367;-61
2023/05/05 07:29:46;;;;;;;8.60;2.10;;;;;;;16.38;27.76;100289.34;5092692;28;20028;-61
2023/05/05 07:32:12;;;;;;;7.72;2.35;;;;;;;15.62;29.13;100297.44;5092470;28;20427;-62
2023/05/05 07:34:39;;;;;;;13.70;2.30;;;;;;;15.06;29.90;100304.44;5092369;28;20032;-60
2023/05/05 07:37:05;;;;;;;8.45;2.10;;;;;;;14.53;31.24;100311.00;5092456;28;20024;-61
2023/05/05 07:39:30;;;;;;;4.13;1.85;;;;;;;14.20;31.98;100308.47;5092427;28;20028;-61
2023/05/05 07:41:56;;;;;;;6.90;2.08;;;;;;;13.92;32.90;100300.97;5091563;28;20109;-62
2023/05/05 07:44:21;;;;;;;9.70;2.00;;;;;;;13.45;33.50;100305.94;5074347;28;20411;-61
2023/05/05 07:46:47;;;;;;;5.70;1.85;;;;;;;13.18;34.17;100313.50;5092455;28;20362;-62
2023/05/05 07:49:12;;;;;;;2.30;1.70;;;;;;;13.03;34.24;100309.41;5092321;28;20021;-63
2023/05/05 07:51:38;;;;;;;8.02;1.90;;;;;;;12.74;34.78;100316.19;5092204;28;20114;-60
2023/05/05 07:54:04;;;;;;;2.92;1.50;;;;;;;12.45;35.33;100314.06;5092622;28;20032;-60
2023/05/05 07:56:29;;;;;;;9.05;2.00;;;;;;;12.23;35.67;100317.63;5092276;28;20445;-61
2023/05/05 07:58:55;;;;;;;6.85;2.08;;;;;;;11.99;36.12;100309.66;5092204;28;20024;-58
2023/05/05 08:01:20;;;;;;;14.00;2.05;;;;;;;11.80;36.67;100319.13;5092811;28;20391;-60
2023/05/05 08:03:45;;;;;;;7.55;2.00;;;;;;;11.82;36.59;100325.25;5092161;28;20024;-61
2023/05/05 08:06:15;;;;;;;2.40;1.35;;;;;;;11.85;36.45;100333.06;5092250;28;20159;-61
2023/05/05 08:08:41;;;;;;;6.80;1.80;;;;;;;11.82;36.25;100330.63;5092474;28;20108;-61
2023/05/05 08:11:06;;;;;;;5.30;2.03;;;;;;;11.90;36.25;100325.50;5092354;28;20104;-61
2023/05/05 08:13:33;;;;;;;5.65;2.33;;;;;;;12.11;36.18;100326.66;5091996;28;20097;-61
2023/05/05 08:15:58;;;;;;;4.95;2.08;;;;;;;12.43;35.41;100334.81;5092190;28;20112;-60
2023/05/05 08:18:24;;;;;;;6.35;2.10;;;;;;;12.56;35.21;100328.47;5092233;28;20032;-62
2023/05/05 08:20:49;;;;;;;4.50;2.10;;;;;;;12.14;35.88;100332.63;5092246;28;20039;-62
2023/05/05 08:23:16;;;;;;;6.03;2.25;;;;;;;11.68;37.43;100349.59;5092950;28;20039;-61
2023/05/05 08:25:42;;;;;;;5.68;2.67;;;;;;;11.20;38.61;100359.44;5096233;28;20055;-61
2023/05/05 08:28:07;;;;;;;7.38;3.42;;;;;;;10.94;39.32;100359.56;5096195;28;20063;-61
2023/05/05 08:30:37;;;;;;;9.32;2.22;;;;;;;10.81;40.16;100367.63;5095757;28;20054;-58
2023/05/05 08:33:03;;;;;;;7.35;2.15;;;;;;;10.81;40.35;100367.63;5095545;28;20028;-61
2023/05/05 08:35:29;;;;;;;6.88;2.10;;;;;;;10.75;40.20;100358.22;5095903;28;20045;-61
2023/05/05 08:37:54;;;;;;;9.50;2.00;;;;;;;10.72;40.08;100363.81;5095365;28;20030;-62
2023/05/05 08:40:28;;;;;;;4.63;2.03;;;;;;;10.62;40.20;100366.28;5095008;28;20050;-62
2023/05/05 08:42:53;;;;;;;5.25;2.20;;;;;;;10.37;40.29;100380.56;5095508;28;20101;-62
2023/05/05 08:45:19;;;;;;;4.30;2.08;;;;;;;10.02;41.04;100349.09;5077275;28;20047;-62
2023/05/05 08:47:44;;;;;;;3.03;1.95;;;;;;;9.93;41.06;100377.34;5094776;28;20395;-62
2023/05/05 08:50:10;;;;;;;5.80;2.13;;;;;;;9.75;41.31;100380.31;5095026;28;20028;-59
2023/05/05 08:52:44;;;;;;;4.70;1.90;;;;;;;9.59;41.17;100340.41;5095322;28;20032;-59
2023/05/05 08:55:25;;;;;;;4.53;2.40;;;;;;;9.67;41.37;100368.44;5095549;28;20059;-60
2023/05/05 08:57:55;;;;;;;7.38;3.45;;;;;;;9.69;41.35;100377.22;5095487;28;20028;-60
2023/05/05 09:00:21;;;;;;;8.18;4.50;;;;;;;9.63;41.56;100382.00;5094848;28;20028;-61
2023/05/05 09:02:47;;;;;;;6.10;4.45;;;;;;;9.69;41.20;100371.88;5095101;28;20343;-61
2023/05/05 09:05:13;;;;;;;6.90;3.95;;;;;;;9.95;40.01;100372.75;5095363;28;20039;-61
2023/05/05 09:07:42;;;;;;;11.80;4.70;;;;;;;9.99;40.52;100378.75;5095191;28;20370;-61
2023/05/05 09:10:11;;;;;;;7.40;3.60;;;;;;;10.66;38.92;100380.31;5094898;28;20047;-60
2023/05/05 09:12:41;;;;;;;4.55;2.20;;;;;;;11.27;37.50;100382.13;5094854;28;20378;-60
2023/05/05 09:15:12;;;;;;;5.13;2.30;;;;;;;11.91;35.27;100378.19;5094712;28;20392;-63
2023/05/05 09:17:38;;;;;;;4.00;2.17;;;;;;;12.08;34.72;100343.88;5094756;28;20054;-60
2023/05/05 09:20:06;;;;;;;5.57;1.90;;;;;;;12.42;33.72;100365.34;5094363;28;20032;-61
2023/05/05 09:22:45;;;;;;;6.82;1.85;;;;;;;12.48;33.55;100378.25;5094382;28;20328;-59
2023/05/05 09:25:12;;;;;;;4.65;1.90;;;;;;;12.78;33.06;100382.16;5094485;28;20024;-60
2023/05/05 09:27:40;;;;;;;3.65;2.03;;;;;;;13.03;32.34;100347.91;5094331;28;20089;-61
2023/05/05 09:30:07;;;;;;;5.07;2.00;;;;;;;13.68;31.40;100379.31;5094028;28;20028;-62
2023/05/05 09:32:44;;;;;;;6.55;2.25;;;;;;;14.31;30.54;100382.94;5094020;28;20036;-61
2023/05/05 09:35:10;;;;;;;4.18;1.90;;;;;;;14.46;29.82;100384.28;5093576;28;20111;-62
2023/05/05 09:37:37;;;;;;;5.35;1.92;;;;;;;14.55;29.87;100379.91;5094367;28;20024;-62
2023/05/05 09:40:04;;;;;;;4.93;1.80;;;;;;;14.50;29.56;100368.69;5076703;28;20032;-59
2023/05/05 09:42:30;;;;;;;8.95;2.20;;;;;;;14.81;29.18;100386.72;5094280;28;20028;-62
2023/05/05 09:44:56;;;;;;;4.65;2.00;;;;;;;15.12;29.01;100375.84;5076485;28;20040;-62
2023/05/05 09:47:34;;;;;;;6.13;1.83;;;;;;;15.68;28.46;100376.97;5094164;28;20474;-62
2023/05/05 09:50:00;;;;;;;3.42;2.10;;;;;;;15.67;28.48;100350.13;5093914;28;20092;-62
2023/05/05 09:52:26;;;;;;;2.95;2.08;;;;;;;15.83;27.89;100373.84;5094281;28;20031;-61
2023/05/05 09:54:56;;;;;;;2.15;1.85;;;;;;;15.59;28.32;100376.00;5094290;28;20081;-59
2023/05/05 09:57:29;;;;;;;3.40;2.13;;;;;;;15.00;28.78;100377.81;5094335;28;20054;-61
2023/05/05 09:59:56;;;;;;;4.47;2.35;;;;;;;14.11;29.89;100374.75;5094407;28;20035;-62
2023/05/05 10:02:31;;;;;;;5.20;2.90;;;;;;;13.44;31.37;100368.78;5094127;28;20366;-62
2023/05/05 10:05:16;;;;;;;4.80;2.38;;;;;;;13.50;31.54;100384.41;5094729;28;20435;-60
2023/05/05 10:07:44;;;;;;;7.88;2.08;;;;;;;13.53;31.65;100383.28;5076111;28;20479;-62
2023/05/05 10:10:19;;;;;;;3.67;2.17;;;;;;;13.73;31.35;100387.84;5093969;28;20090;-62
2023/05/05 10:12:48;;;;;;;5.20;2.13;;;;;;;13.44;32.04;100393.00;5076399;28;20038;-62
2023/05/05 10:15:14;;;;;;;3.65;1.65;;;;;;;13.07;32.54;100392.38;5093925;28;20032;-61
2023/05/05 10:17:46;;;;;;;5.60;2.30;;;;;;;12.66;32.80;100367.03;5093888;28;20028;-61
2023/05/05 10:20:12;;;;;;;4.05;2.28;;;;;;;12.39;33.61;100391.56;5093972;28;20115;-60
2023/05/05 10:22:43;;;;;;;8.32;2.30;;;;;;;12.13;33.93;100394.47;5093908;28;20028;-62
2023/05/05 10:25:11;;;;;;;4.93;2.20;;;;;;;11.69;34.19;100360.19;5093557;28;20039;-61
2023/05/05 10:27:45;;;;;;;5.88;2.00;;;;;;;11.71;34.50;100401.22;5093444;28;20085;-61
2023/05/05 10:30:23;;;;;;;6.97;2.38;;;;;;;11.54;34.42;100396.25;5093939;28;20067;-61
2023/05/05 10:33:18;;;;;;;4.07;2.22;;;;;;;11.54;34.66;100394.41;5093870;28;20031;-61
2023/05/05 10:35:48;;;;;;;5.10;2.13;;;;;;;11.38;35.21;100388.53;5085071;28;20127;-60
2023/05/05 10:38:15;;;;;;;6.50;2.40;;;;;;;11.49;34.85;100388.56;5093297;28;20028;-61
2023/05/05 10:40:47;;;;;;;8.30;3.08;;;;;;;11.87;33.95;100389.28;5093615;28;20020;-60
2023/05/05 10:43:13;;;;;;;6.60;2.60;;;;;;;12.04;32.73;100380.81;5093283;28;20039;-61
2023/05/05 10:45:40;;;;;;;6.47;2.95;;;;;;;12.17;32.22;100379.84;5092769;28;20051;-61
2023/05/05 10:48:17;;;;;;;5.10;2.88;;;;;;;12.34;32.15;100389.28;5093156;28;20028;-61
2023/05/05 10:50:49;;;;;;;6.30;2.40;;;;;;;12.34;31.89;100383.91;5093211;28;20381;-62
2023/05/05 10:53:24;;;;;;;5.82;2.97;;;;;;;12.46;32.06;100388.28;5093143;28;20058;-61
2023/05/05 10:55:58;;;;;;;8.48;2.60;;;;;;;12.71;31.37;100383.63;5092871;28;20032;-60
2023/05/05 10:58:36;;;;;;;4.43;2.30;;;;;;;12.92;31.15;100391.78;5093155;28;20102;-63
2023/05/05 11:01:03;;;;;;;3.35;2.05;;;;;;;12.87;30.39;100393.13;5075479;28;20036;-66
2023/05/05 11:03:28;;;;;;;3.83;1.90;;;;;;;12.53;30.91;100379.72;5093429;28;20404;-61
2023/05/05 11:08:31;;;;;;;13.02;2.20;;;;;;;12.05;32.33;100392.38;5093469;28;20469;-61
2023/05/05 11:10:57;;;;;;;7.75;1.80;;;;;;;11.86;32.98;100399.16;5093273;28;20028;-61
2023/05/05 11:13:22;;;;;;;2.85;1.63;;;;;;;11.72;33.16;100397.56;5093047;28;20042;-60
2023/05/05 11:15:50;;;;;;;3.58;1.77;;;;;;;11.48;33.64;100394.88;5092867;28;20027;-62
2023/05/05 11:18:35;;;;;;;6.38;2.10;;;;;;;11.56;33.46;100402.34;5093281;28;20331;-61
2023/05/05 11:21:03;;;;;;;3.47;2.20;;;;;;;11.45;33.78;100406.72;5075487;28;20120;-62
2023/05/05 11:23:28;;;;;;;3.70;2.10;;;;;;;11.38;33.96;100396.56;5093191;28;20036;-61
2023/05/05 11:25:56;;;;;;;4.72;2.33;;;;;;;11.33;33.98;100399.59;5092616;28;20062;-60
2023/05/05 11:28:30;;;;;;;7.28;2.33;;;;;;;11.16;34.10;100396.31;5092744;28;20039;-60
2023/05/05 11:30:56;;;;;;;5.18;2.33;;;;;;;11.03;34.61;100392.84;5092813;28;20443;-61
2023/05/05 11:33:32;;;;;;;3.83;2.80;;;;;;;11.11;34.21;100392.28;5075024;28;20040;-61